Portada
METAR-TAF:

METAR-TAF

Aeropuertos :

Aeropuerto Internacional de Mehrabad

Teherán, Irán

latitud: 35-41N, longitud: 051-21E, altitud: 1204 m

Observación

El informe se hizo hace 17 minutos, a las 06:00 UTC
Viento 4 kt del sur-sureste
Temperatura 0°C
Humedad 55%
Presión 1016 hPa
Visibilidad 10 km o más
sin nubes por debajo de 1500 m y sin presencia de cumulonimbus.

METAR: OIII 190600Z 15004KT CAVOK M00/M08 Q1016 A3001

Hora: 09:47 (06:17 UTC)

Pronóstico

El informe se hizo hace 47 minutos, a las 05:30 UTC
Pronóstico válido del 19 a las 06 UTC al 20 a las 12 UTC
Viento 8 kt del sur-suroeste
Visibilidad: 8000 m
Escasas nubes a una altura de 4000 ft

TAF: OIII 190530Z 1906/2012 20008KT 8000 FEW040

Observaciones y pronósticos meteorológicos de más de 4000 aeropuertos (mensajes METAR y TAF).

Los puntos amarillos y rojos representan las estaciones disponibles.

Ponga el ratón en el punto deseado para ver el nombre de la estación.

Haga clic para ver las observaciones y los pronósticos meteorológicos.

Para cambiar el mapa : haga clic en los botones verdes con una cruz de color negro para hacer un zoom, en el botón verde con un guión para alejar o en las flechas verdes para mapas adyacentes.


METAR-TAF: